Time;durP1;ratioP1;P1;durP2;ratioP2;P2;SDS_P1;SDS_P2;PMS_P1;PMS_P2;Temp;Humidity;BMP_temperature;BMP_pressure;BME280_temperature;BME280_humidity;BME280_pressure;Samples;Min_cycle;Max_cycle;Signal;HPM_P1;HPM_P2
2021/05/02 00:01:06;;;;;;;29.08;21.90;;;;;;;;;;5075783;28;20175;-74
2021/05/02 00:03:33;;;;;;;30.03;20.80;;;;;;;;;;5076043;28;20171;-72
2021/05/02 00:05:59;;;;;;;27.77;21.55;;;;;;;;;;5075248;28;20408;-71
2021/05/02 00:08:27;;;;;;;30.45;22.73;;;;;;;;;;5075412;28;20198;-71
2021/05/02 00:10:53;;;;;;;33.27;21.97;;;;;;;;;;5075024;28;20231;-72
2021/05/02 00:13:19;;;;;;;27.02;20.50;;;;;;;;;;5075322;28;20467;-72
2021/05/02 00:15:45;;;;;;;28.80;22.07;;;;;;;;;;5075357;28;20247;-72
2021/05/02 00:18:11;;;;;;;28.10;21.10;;;;;;;;;;5075357;28;20413;-73
2021/05/02 00:23:41;;;;;;;28.58;20.17;;;;;;;;;;5074899;28;20489;-73
2021/05/02 00:26:08;;;;;;;23.03;19.13;;;;;;;;;;5075212;28;20206;-72
2021/05/02 00:28:34;;;;;;;28.47;20.27;;;;;;;;;;5075009;28;20509;-71
2021/05/02 00:31:09;;;;;;;23.25;17.63;;;;;;;;;;5075290;28;20403;-72
2021/05/02 00:33:35;;;;;;;31.15;19.85;;;;;;;;;;5074841;28;20698;-72
2021/05/02 00:39:05;;;;;;;27.60;19.80;;;;;;;;;;5075058;28;20181;-72
2021/05/02 00:41:32;;;;;;;24.10;19.20;;;;;;;;;;5074900;28;20942;-72
2021/05/02 00:43:59;;;;;;;28.77;20.30;;;;;;;;;;5074654;28;20189;-71
2021/05/02 00:46:29;;;;;;;27.00;20.40;;;;;;;;;;5074476;28;20669;-72
2021/05/02 00:49:15;;;;;;;24.50;19.35;;;;;;;;;;5074383;28;20430;-72
2021/05/02 00:51:44;;;;;;;26.60;19.98;;;;;;;;;;5073710;28;20229;-72
2021/05/02 00:54:33;;;;;;;28.07;20.60;;;;;;;;;;5073063;28;20281;-72
2021/05/02 00:57:00;;;;;;;22.15;19.05;;;;;;;;;;5068891;28;20525;-72
2021/05/02 00:59:43;;;;;;;26.77;20.73;;;;;;;;;;5074323;28;20179;-72
2021/05/02 01:02:10;;;;;;;24.30;19.63;;;;;;;;;;5074558;28;20544;-72
2021/05/02 01:04:39;;;;;;;26.00;21.67;;;;;;;;;;5074349;28;20172;-72
2021/05/02 01:07:05;;;;;;;24.50;20.13;;;;;;;;;;5074201;28;20547;-71
2021/05/02 01:09:31;;;;;;;23.83;19.45;;;;;;;;;;5074127;28;20168;-72
2021/05/02 01:11:58;;;;;;;25.87;21.53;;;;;;;;;;5074560;28;20578;-73
2021/05/02 01:14:25;;;;;;;26.30;20.23;;;;;;;;;;5072928;28;20434;-73
2021/05/02 01:16:54;;;;;;;28.13;20.53;;;;;;;;;;5074008;28;20255;-72
2021/05/02 01:19:20;;;;;;;26.88;20.58;;;;;;;;;;5074217;28;20493;-71
2021/05/02 01:21:49;;;;;;;24.35;19.38;;;;;;;;;;5073958;28;20168;-72
2021/05/02 01:24:15;;;;;;;22.10;17.98;;;;;;;;;;5074227;28;20172;-74
2021/05/02 01:26:42;;;;;;;25.20;19.93;;;;;;;;;;5074945;28;20273;-71
2021/05/02 01:29:08;;;;;;;23.20;18.55;;;;;;;;;;5074938;28;20471;-72
2021/05/02 01:31:34;;;;;;;22.65;18.67;;;;;;;;;;5073781;28;20250;-71
2021/05/02 01:34:01;;;;;;;21.95;17.80;;;;;;;;;;5073916;28;20591;-72
2021/05/02 01:39:31;;;;;;;27.23;18.00;;;;;;;;;;5073536;28;20737;-72
2021/05/02 01:41:57;;;;;;;25.65;19.40;;;;;;;;;;5073588;28;20489;-72
2021/05/02 01:44:23;;;;;;;31.20;20.17;;;;;;;;;;5073600;28;20218;-72
2021/05/02 01:46:50;;;;;;;24.93;20.43;;;;;;;;;;5073334;28;21046;-71
2021/05/02 01:49:17;;;;;;;26.25;19.38;;;;;;;;;;5073763;28;20908;-73
2021/05/02 01:51:44;;;;;;;23.48;18.60;;;;;;;;;;5073455;28;20172;-72
2021/05/02 01:54:10;;;;;;;22.00;17.60;;;;;;;;;;5073553;28;20273;-72
2021/05/02 01:56:36;;;;;;;21.48;18.92;;;;;;;;;;5073528;28;20183;-72
2021/05/02 01:59:03;;;;;;;24.25;19.17;;;;;;;;;;5073707;28;20171;-73
2021/05/02 02:01:29;;;;;;;20.27;16.83;;;;;;;;;;5073284;28;20263;-72
2021/05/02 02:03:57;;;;;;;24.83;18.30;;;;;;;;;;5072384;28;20414;-72
2021/05/02 02:09:26;;;;;;;26.25;20.20;;;;;;;;;;5072988;28;20420;-74
2021/05/02 02:11:52;;;;;;;21.33;18.73;;;;;;;;;;5072787;28;20688;-74
2021/05/02 02:14:19;;;;;;;28.35;18.40;;;;;;;;;;5073024;28;20167;-73
2021/05/02 02:16:46;;;;;;;23.02;18.00;;;;;;;;;;5072776;28;20537;-73
2021/05/02 02:19:12;;;;;;;25.55;18.80;;;;;;;;;;5072773;28;20618;-72
2021/05/02 02:24:44;;;;;;;23.55;19.77;;;;;;;;;;5072694;28;20402;-75
2021/05/02 02:27:10;;;;;;;23.60;19.30;;;;;;;;;;5072877;28;20565;-75
2021/05/02 02:29:47;;;;;;;24.92;19.08;;;;;;;;;;5072731;28;20649;-73
2021/05/02 02:32:14;;;;;;;28.45;18.50;;;;;;;;;;5072593;28;20448;-77
2021/05/02 02:34:48;;;;;;;22.95;20.52;;;;;;;;;;5072714;28;20226;-75
2021/05/02 02:37:18;;;;;;;21.83;19.42;;;;;;;;;;5072914;28;20270;-75
2021/05/02 02:39:46;;;;;;;24.48;20.45;;;;;;;;;;5072806;28;20683;-72
2021/05/02 02:42:13;;;;;;;25.07;19.97;;;;;;;;;;5072691;28;20190;-75
2021/05/02 02:44:43;;;;;;;29.13;19.75;;;;;;;;;;5071068;28;20847;-77
2021/05/02 02:47:11;;;;;;;29.17;21.63;;;;;;;;;;5072640;28;20206;-72
2021/05/02 02:49:40;;;;;;;28.52;21.67;;;;;;;;;;5072400;28;20167;-72
2021/05/02 02:52:08;;;;;;;23.73;20.77;;;;;;;;;;5072333;28;20199;-74
2021/05/02 02:54:35;;;;;;;28.52;21.77;;;;;;;;;;5072394;28;20614;-73
2021/05/02 02:57:02;;;;;;;27.35;20.70;;;;;;;;;;5072359;28;20174;-75
2021/05/02 02:59:29;;;;;;;26.87;21.53;;;;;;;;;;5072286;28;20175;-73
2021/05/02 03:01:56;;;;;;;23.60;19.98;;;;;;;;;;5072201;28;20943;-75
2021/05/02 03:04:24;;;;;;;26.70;20.70;;;;;;;;;;5072162;28;20159;-72
2021/05/02 03:09:53;;;;;;;25.65;20.23;;;;;;;;;;5072184;28;20182;-76
2021/05/02 03:12:23;;;;;;;24.87;20.37;;;;;;;;;;5072213;28;20250;-73
2021/05/02 03:14:50;;;;;;;23.88;21.02;;;;;;;;;;5072911;28;20421;-73
2021/05/02 03:17:21;;;;;;;30.30;21.42;;;;;;;;;;5076726;28;20206;-73
2021/05/02 03:25:42;;;;;;;26.98;20.85;;;;;;;;;;5072356;28;20262;-73
2021/05/02 03:28:11;;;;;;;31.00;23.88;;;;;;;;;;5071780;28;20221;-72
2021/05/02 03:30:40;;;;;;;26.35;22.88;;;;;;;;;;5072148;28;20171;-75
2021/05/02 03:33:09;;;;;;;26.92;22.02;;;;;;;;;;5071926;28;20193;-76
2021/05/02 03:35:36;;;;;;;28.17;21.00;;;;;;;;;;5071808;28;20171;-73
2021/05/02 03:38:20;;;;;;;27.42;23.23;;;;;;;;;;5071865;28;20217;-73
2021/05/02 03:40:46;;;;;;;28.90;23.83;;;;;;;;;;5071967;28;20186;-73
2021/05/02 03:43:12;;;;;;;27.37;21.93;;;;;;;;;;5071948;28;20663;-74
2021/05/02 03:45:39;;;;;;;26.00;22.90;;;;;;;;;;5071744;28;20418;-73
2021/05/02 03:48:05;;;;;;;25.83;21.92;;;;;;;;;;5071783;28;20507;-72
2021/05/02 03:50:31;;;;;;;24.75;20.98;;;;;;;;;;5071700;28;20164;-73
2021/05/02 03:52:57;;;;;;;30.67;23.80;;;;;;;;;;5070182;28;20503;-71
2021/05/02 03:55:23;;;;;;;24.93;21.37;;;;;;;;;;5071673;28;20412;-75
2021/05/02 03:57:49;;;;;;;26.40;22.85;;;;;;;;;;5071967;28;20420;-72
2021/05/02 04:00:16;;;;;;;27.08;23.10;;;;;;;;;;5071848;28;20182;-74
2021/05/02 04:02:42;;;;;;;31.30;23.52;;;;;;;;;;5072108;28;20171;-72
2021/05/02 04:05:08;;;;;;;28.63;23.00;;;;;;;;;;5072107;28;20164;-74
2021/05/02 04:10:38;;;;;;;24.70;21.70;;;;;;;;;;5072112;28;20233;-72
2021/05/02 04:13:03;;;;;;;27.35;22.63;;;;;;;;;;5072267;28;20179;-73
2021/05/02 04:15:29;;;;;;;27.77;23.23;;;;;;;;;;5071974;28;20176;-72
2021/05/02 04:17:55;;;;;;;27.77;23.17;;;;;;;;;;5071774;28;20422;-73
2021/05/02 04:20:21;;;;;;;25.70;21.60;;;;;;;;;;5072054;28;20176;-72
2021/05/02 04:22:48;;;;;;;26.85;21.77;;;;;;;;;;5071596;28;20772;-72
2021/05/02 04:25:14;;;;;;;30.00;23.75;;;;;;;;;;5071727;28;20195;-73
2021/05/02 04:27:40;;;;;;;28.45;21.73;;;;;;;;;;5074766;28;20714;-71
2021/05/02 04:30:07;;;;;;;32.90;23.50;;;;;;;;;;5075258;28;20175;-73
2021/05/02 04:32:33;;;;;;;27.98;23.35;;;;;;;;;;5075384;28;20563;-72
2021/05/02 04:34:59;;;;;;;33.03;22.83;;;;;;;;;;5075286;28;20167;-72
2021/05/02 04:40:28;;;;;;;26.70;20.77;;;;;;;;;;5075106;28;20880;-71
2021/05/02 04:42:54;;;;;;;25.73;21.70;;;;;;;;;;5075242;28;20167;-71
2021/05/02 04:45:20;;;;;;;24.90;21.27;;;;;;;;;;5075030;28;20759;-73
2021/05/02 04:47:46;;;;;;;27.90;23.42;;;;;;;;;;5074921;28;20461;-71
2021/05/02 04:50:12;;;;;;;28.43;23.43;;;;;;;;;;5074983;28;20507;-70
2021/05/02 04:55:42;;;;;;;25.50;20.30;;;;;;;;;;5074847;28;20552;-72
2021/05/02 04:58:08;;;;;;;28.33;23.13;;;;;;;;;;5074917;28;20178;-72
2021/05/02 05:00:35;;;;;;;26.67;22.60;;;;;;;;;;5075102;28;20744;-71
2021/05/02 05:03:01;;;;;;;28.80;23.35;;;;;;;;;;5075016;28;20410;-71
2021/05/02 05:05:27;;;;;;;25.23;21.08;;;;;;;;;;5077728;28;20189;-72
2021/05/02 05:10:57;;;;;;;26.20;22.52;;;;;;;;;;5074565;28;20765;-70
2021/05/02 05:13:25;;;;;;;28.37;23.90;;;;;;;;;;5074514;28;20275;-71
2021/05/02 05:15:51;;;;;;;31.02;22.88;;;;;;;;;;5074466;28;20889;-72
2021/05/02 05:18:17;;;;;;;27.47;23.10;;;;;;;;;;5074304;28;20211;-73
2021/05/02 05:20:43;;;;;;;29.25;22.35;;;;;;;;;;5074566;28;20769;-72
2021/05/02 05:26:12;;;;;;;32.83;23.42;;;;;;;;;;5074224;28;20412;-72
2021/05/02 05:28:38;;;;;;;28.40;21.40;;;;;;;;;;5072593;28;20186;-72
2021/05/02 05:31:04;;;;;;;27.67;23.10;;;;;;;;;;5074564;28;20417;-72
2021/05/02 05:33:31;;;;;;;24.70;21.17;;;;;;;;;;5074056;28;20626;-71
2021/05/02 05:41:45;;;;;;;26.92;22.13;;;;;;;;;;5074181;28;20205;-74
2021/05/02 05:44:11;;;;;;;24.47;20.40;;;;;;;;;;5073699;28;20172;-72
2021/05/02 05:46:37;;;;;;;30.63;21.97;;;;;;;;;;5073587;28;20460;-74
2021/05/02 05:49:03;;;;;;;25.57;22.80;;;;;;;;;;5073687;28;20453;-74
2021/05/02 05:51:29;;;;;;;24.98;20.63;;;;;;;;;;5073707;28;20413;-73
2021/05/02 05:53:55;;;;;;;23.10;20.67;;;;;;;;;;5073453;28;20183;-72
2021/05/02 05:56:21;;;;;;;28.70;22.00;;;;;;;;;;5073580;28;20416;-73
2021/05/02 05:58:47;;;;;;;24.20;21.40;;;;;;;;;;5073465;28;20425;-72
2021/05/02 06:01:13;;;;;;;23.27;19.60;;;;;;;;;;5073111;28;20466;-72
2021/05/02 06:03:39;;;;;;;27.42;20.73;;;;;;;;;;5073710;28;20486;-72
2021/05/02 06:06:05;;;;;;;26.95;20.83;;;;;;;;;;5073483;28;20167;-71
2021/05/02 06:11:36;;;;;;;22.90;20.10;;;;;;;;;;5073308;28;20511;-71
2021/05/02 06:14:03;;;;;;;27.97;20.07;;;;;;;;;;5073372;28;20168;-73
2021/05/02 06:16:29;;;;;;;23.05;19.95;;;;;;;;;;5073292;28;20419;-72
2021/05/02 06:18:55;;;;;;;25.77;20.15;;;;;;;;;;5073445;28;20175;-74
2021/05/02 06:21:22;;;;;;;23.40;20.25;;;;;;;;;;5073269;28;20174;-71
2021/05/02 06:23:49;;;;;;;21.60;19.30;;;;;;;;;;5073091;28;20174;-76
2021/05/02 06:26:18;;;;;;;22.58;20.15;;;;;;;;;;5072729;28;20409;-72
2021/05/02 06:28:44;;;;;;;23.15;20.50;;;;;;;;;;5073619;28;20179;-76
2021/05/02 06:31:11;;;;;;;23.70;19.02;;;;;;;;;;5073273;28;20195;-71
2021/05/02 06:33:37;;;;;;;27.13;19.02;;;;;;;;;;5073088;28;20581;-73
2021/05/02 06:36:04;;;;;;;23.53;20.97;;;;;;;;;;5071752;28;20630;-74
2021/05/02 06:41:34;;;;;;;20.85;18.50;;;;;;;;;;5073129;28;20776;-73
2021/05/02 06:44:01;;;;;;;21.67;19.48;;;;;;;;;;5072999;28;20170;-73
2021/05/02 06:46:28;;;;;;;22.92;18.52;;;;;;;;;;5072466;28;20269;-81
2021/05/02 06:48:57;;;;;;;21.97;18.20;;;;;;;;;;5072413;28;20163;-76
2021/05/02 06:51:23;;;;;;;19.90;16.67;;;;;;;;;;5072744;28;20489;-73
2021/05/02 06:56:53;;;;;;;21.30;18.70;;;;;;;;;;5073089;28;20182;-80
2021/05/02 06:59:19;;;;;;;20.40;17.90;;;;;;;;;;5072599;28;20908;-77
2021/05/02 07:01:45;;;;;;;20.43;18.20;;;;;;;;;;5072596;28;20407;-77
2021/05/02 07:04:11;;;;;;;20.33;18.27;;;;;;;;;;5072651;28;20414;-78
2021/05/02 07:06:37;;;;;;;19.83;17.70;;;;;;;;;;5072386;28;20457;-74
2021/05/02 07:12:06;;;;;;;20.63;16.77;;;;;;;;;;5072421;28;20531;-78
2021/05/02 07:14:32;;;;;;;19.10;17.17;;;;;;;;;;5072614;28;20419;-75
2021/05/02 07:16:58;;;;;;;23.63;18.37;;;;;;;;;;5072323;28;20415;-72
2021/05/02 07:19:24;;;;;;;18.60;16.70;;;;;;;;;;5072305;28;20429;-76
2021/05/02 07:21:57;;;;;;;22.70;17.93;;;;;;;;;;5072183;28;20505;-73
2021/05/02 07:27:26;;;;;;;22.53;16.70;;;;;;;;;;5072100;28;21024;-73
2021/05/02 07:29:52;;;;;;;18.60;15.40;;;;;;;;;;5071892;28;20924;-73
2021/05/02 07:32:18;;;;;;;18.87;16.67;;;;;;;;;;5072307;28;20765;-74
2021/05/02 07:34:45;;;;;;;18.30;16.60;;;;;;;;;;5070797;28;20514;-78
2021/05/02 07:37:11;;;;;;;16.13;14.43;;;;;;;;;;5070551;28;20451;-77
2021/05/02 07:39:39;;;;;;;16.53;14.83;;;;;;;;;;5071930;28;20413;-78
2021/05/02 07:42:05;;;;;;;17.23;15.43;;;;;;;;;;5072037;28;20540;-73
2021/05/02 07:44:31;;;;;;;16.10;14.50;;;;;;;;;;5072159;28;20899;-74
2021/05/02 07:46:57;;;;;;;16.67;14.77;;;;;;;;;;5070727;28;20483;-73
2021/05/02 07:49:23;;;;;;;17.00;15.30;;;;;;;;;;5072000;28;20480;-73
2021/05/02 07:51:49;;;;;;;18.30;16.53;;;;;;;;;;5070675;28;20441;-78
2021/05/02 07:57:19;;;;;;;15.50;13.83;;;;;;;;;;5072138;28;20466;-75
2021/05/02 07:59:45;;;;;;;15.80;14.30;;;;;;;;;;5072623;28;20407;-73
2021/05/02 08:02:11;;;;;;;14.90;13.40;;;;;;;;;;5075214;28;20436;-73
2021/05/02 08:04:38;;;;;;;15.00;13.40;;;;;;;;;;5076075;28;20417;-75
2021/05/02 08:07:05;;;;;;;15.40;13.90;;;;;;;;;;5075938;28;20451;-79
2021/05/02 08:12:34;;;;;;;15.13;13.73;;;;;;;;;;5076367;28;20602;-78
2021/05/02 08:15:00;;;;;;;14.70;13.20;;;;;;;;;;5076266;28;20527;-77
2021/05/02 08:17:26;;;;;;;15.30;13.90;;;;;;;;;;5076448;28;20471;-76
2021/05/02 08:19:53;;;;;;;16.33;14.60;;;;;;;;;;5076072;28;20421;-81
2021/05/02 08:22:19;;;;;;;15.07;13.47;;;;;;;;;;5075009;28;20428;-75
2021/05/02 08:27:50;;;;;;;17.17;14.20;;;;;;;;;;5075253;28;20470;-77
2021/05/02 08:30:16;;;;;;;18.63;12.20;;;;;;;;;;5075862;28;20970;-76
2021/05/02 08:32:42;;;;;;;15.80;14.20;;;;;;;;;;5075732;28;20425;-80
2021/05/02 08:35:09;;;;;;;19.40;13.43;;;;;;;;;;5074656;28;20426;-75
2021/05/02 08:37:35;;;;;;;13.67;12.47;;;;;;;;;;5075472;28;20429;-74
2021/05/02 08:43:05;;;;;;;13.67;12.47;;;;;;;;;;5074727;28;20590;-77
2021/05/02 08:45:34;;;;;;;13.90;12.47;;;;;;;;;;5075435;28;20414;-77
2021/05/02 08:48:00;;;;;;;14.57;12.73;;;;;;;;;;5082049;28;20867;-73
2021/05/02 08:50:27;;;;;;;15.30;13.70;;;;;;;;;;5075721;28;20425;-78
2021/05/02 08:52:53;;;;;;;14.67;13.13;;;;;;;;;;5074481;28;20462;-74
2021/05/02 08:58:23;;;;;;;18.27;14.57;;;;;;;;;;5074175;28;20408;-76
2021/05/02 09:00:51;;;;;;;13.60;12.30;;;;;;;;;;5074024;28;20413;-75
2021/05/02 09:03:17;;;;;;;14.03;12.57;;;;;;;;;;5073918;28;20489;-73
2021/05/02 09:05:43;;;;;;;14.83;13.43;;;;;;;;;;5074056;28;20421;-75
2021/05/02 09:08:10;;;;;;;15.43;12.90;;;;;;;;;;5074025;28;20490;-79
2021/05/02 09:10:36;;;;;;;15.77;14.27;;;;;;;;;;5073946;28;20580;-78
2021/05/02 09:13:04;;;;;;;14.23;12.87;;;;;;;;;;5072647;28;20481;-76
2021/05/02 09:15:31;;;;;;;14.67;13.23;;;;;;;;;;5074383;28;20416;-74
2021/05/02 09:20:48;;;;;;;14.57;12.40;;;;;;;;;;5073979;28;20414;-76
2021/05/02 09:23:15;;;;;;;15.83;13.80;;;;;;;;;;5073855;28;20422;-78
2021/05/02 09:25:54;;;;;;;13.77;12.33;;;;;;;;;;5072664;28;20430;-74
2021/05/02 09:28:38;;;;;;;13.80;12.40;;;;;;;;;;5073815;28;20497;-75
2021/05/02 09:31:05;;;;;;;14.13;12.80;;;;;;;;;;5073888;28;20417;-77
2021/05/02 09:33:31;;;;;;;14.37;12.90;;;;;;;;;;5073986;28;21011;-74
2021/05/02 09:35:59;;;;;;;14.53;13.03;;;;;;;;;;5074129;28;20437;-85
2021/05/02 09:38:26;;;;;;;14.73;13.33;;;;;;;;;;5073703;28;20414;-75
2021/05/02 09:40:53;;;;;;;15.20;13.53;;;;;;;;;;5073666;28;20402;-78
2021/05/02 09:43:32;;;;;;;14.80;13.30;;;;;;;;;;5072108;28;20418;-77
2021/05/02 09:46:24;;;;;;;14.00;11.73;;;;;;;;;;5073395;28;20513;-79
2021/05/02 09:48:56;;;;;;;15.50;13.20;;;;;;;;;;5073607;28;20418;-77
2021/05/02 09:51:23;;;;;;;15.53;12.80;;;;;;;;;;5073357;28;20805;-81
2021/05/02 09:54:08;;;;;;;13.60;12.30;;;;;;;;;;5072150;28;20422;-77
2021/05/02 09:56:45;;;;;;;14.00;12.60;;;;;;;;;;5073207;28;20449;-78
2021/05/02 09:59:28;;;;;;;15.63;12.87;;;;;;;;;;5073039;28;20432;-77
2021/05/02 10:02:16;;;;;;;12.97;11.70;;;;;;;;;;5072754;28;20402;-79
2021/05/02 10:04:51;;;;;;;15.53;13.93;;;;;;;;;;5072236;28;20521;-73
2021/05/02 10:07:21;;;;;;;15.03;13.43;;;;;;;;;;5072474;28;20465;-80
2021/05/02 10:09:48;;;;;;;15.83;14.20;;;;;;;;;;5072253;28;20414;-74
2021/05/02 10:12:14;;;;;;;16.87;14.13;;;;;;;;;;5072044;28;20481;-75
2021/05/02 10:14:41;;;;;;;18.27;16.47;;;;;;;;;;5072368;28;20437;-76
2021/05/02 10:17:07;;;;;;;15.80;14.10;;;;;;;;;;5072723;28;20437;-75
2021/05/02 10:19:34;;;;;;;15.43;13.97;;;;;;;;;;5072594;28;20885;-75
2021/05/02 10:22:00;;;;;;;15.83;14.27;;;;;;;;;;5071960;28;20442;-72
2021/05/02 10:24:27;;;;;;;15.17;13.67;;;;;;;;;;5071563;28;20402;-72
2021/05/02 10:26:53;;;;;;;14.30;13.00;;;;;;;;;;5072159;28;20491;-75
2021/05/02 10:29:25;;;;;;;15.27;13.70;;;;;;;;;;5072323;28;20913;-75
2021/05/02 10:31:58;;;;;;;14.00;12.50;;;;;;;;;;5071338;28;20484;-71
2021/05/02 10:34:34;;;;;;;15.20;12.70;;;;;;;;;;5071497;28;20426;-75
2021/05/02 10:37:19;;;;;;;16.00;14.20;;;;;;;;;;5072713;28;20406;-72
2021/05/02 10:39:54;;;;;;;13.97;12.67;;;;;;;;;;5073170;28;20418;-73
2021/05/02 10:42:39;;;;;;;14.97;13.67;;;;;;;;;;5073123;28;20464;-73
2021/05/02 10:45:23;;;;;;;13.70;12.30;;;;;;;;;;5072114;28;20426;-72
2021/05/02 10:47:50;;;;;;;14.73;13.20;;;;;;;;;;5082363;28;20464;-72
2021/05/02 10:50:26;;;;;;;14.10;12.80;;;;;;;;;;5074738;28;20515;-81
2021/05/02 10:53:01;;;;;;;14.37;12.97;;;;;;;;;;5073337;28;20897;-81
2021/05/02 10:55:46;;;;;;;13.17;11.97;;;;;;;;;;5073193;28;20406;-78
2021/05/02 10:58:25;;;;;;;16.13;12.40;;;;;;;;;;5072824;28;20480;-78
2021/05/02 11:00:52;;;;;;;15.10;13.40;;;;;;;;;;5072961;28;20449;-81
2021/05/02 11:03:40;;;;;;;12.03;10.93;;;;;;;;;;5073227;28;20463;-78
2021/05/02 11:06:10;;;;;;;12.67;11.57;;;;;;;;;;5073552;28;20464;-73
2021/05/02 11:08:48;;;;;;;12.97;11.67;;;;;;;;;;5072813;28;20434;-71
2021/05/02 11:11:37;;;;;;;13.47;12.27;;;;;;;;;;5072785;28;20469;-77
2021/05/02 11:14:17;;;;;;;12.33;11.03;;;;;;;;;;5072890;28;20513;-74
2021/05/02 11:17:10;;;;;;;14.20;12.80;;;;;;;;;;5073290;28;20492;-72
2021/05/02 11:19:36;;;;;;;12.07;10.90;;;;;;;;;;5056992;28;20480;-72
2021/05/02 11:22:06;;;;;;;13.00;11.87;;;;;;;;;;5072676;28;20425;-80
2021/05/02 11:27:51;;;;;;;11.43;10.43;;;;;;;;;;5072588;28;20547;-75
2021/05/02 11:30:20;;;;;;;11.97;10.77;;;;;;;;;;5072606;28;20414;-75
2021/05/02 11:32:49;;;;;;;14.13;11.30;;;;;;;;;;5072815;28;20865;-77
2021/05/02 11:35:16;;;;;;;13.70;12.40;;;;;;;;;;5073954;28;20425;-76
2021/05/02 11:37:45;;;;;;;12.73;11.60;;;;;;;;;;5076859;28;20796;-80
2021/05/02 11:43:16;;;;;;;13.10;11.73;;;;;;;;;;5076708;28;20455;-73
2021/05/02 11:45:42;;;;;;;11.50;10.50;;;;;;;;;;5075321;28;20463;-83
2021/05/02 11:48:09;;;;;;;11.53;10.33;;;;;;;;;;5076544;28;20548;-74
2021/05/02 11:50:42;;;;;;;10.77;9.83;;;;;;;;;;5075248;28;20903;-75
2021/05/02 11:53:08;;;;;;;10.43;9.63;;;;;;;;;;5076411;28;20452;-75
2021/05/02 11:58:37;;;;;;;10.77;9.87;;;;;;;;;;5076404;28;20451;-78
2021/05/02 12:01:05;;;;;;;11.97;10.73;;;;;;;;;;5076595;28;20440;-76
2021/05/02 12:03:35;;;;;;;12.70;11.60;;;;;;;;;;5075370;28;20441;-73
2021/05/02 12:06:01;;;;;;;14.20;12.87;;;;;;;;;;5076412;28;20417;-77
2021/05/02 12:08:29;;;;;;;14.50;12.63;;;;;;;;;;5076220;28;20842;-80
2021/05/02 12:13:58;;;;;;;14.97;11.70;;;;;;;;;;5076136;28;20950;-77
2021/05/02 12:16:26;;;;;;;15.57;14.17;;;;;;;;;;5076314;28;20460;-74
2021/05/02 12:18:53;;;;;;;14.67;13.27;;;;;;;;;;5075947;28;20493;-81
2021/05/02 12:21:25;;;;;;;13.77;12.57;;;;;;;;;;5074605;28;20434;-74
2021/05/02 12:23:51;;;;;;;13.97;12.57;;;;;;;;;;5075780;28;20425;-74
2021/05/02 12:29:29;;;;;;;10.03;9.03;;;;;;;;;;5076121;28;20413;-74
2021/05/02 12:32:02;;;;;;;11.00;10.00;;;;;;;;;;5076251;28;20455;-74
2021/05/02 12:34:29;;;;;;;11.77;10.83;;;;;;;;;;5076061;28;20409;-81
2021/05/02 12:36:56;;;;;;;18.43;12.60;;;;;;;;;;5075825;28;20416;-72
2021/05/02 12:45:20;;;;;;;12.67;11.40;;;;;;;;;;5075674;28;20764;-74
2021/05/02 12:47:47;;;;;;;11.77;10.63;;;;;;;;;;5073433;28;20528;-74
2021/05/02 12:50:13;;;;;;;9.83;9.00;;;;;;;;;;5077307;28;20401;-73
2021/05/02 12:52:42;;;;;;;9.13;8.23;;;;;;;;;;5081594;28;20883;-74
2021/05/02 12:55:25;;;;;;;8.87;7.97;;;;;;;;;;5075177;28;20421;-74
2021/05/02 12:57:52;;;;;;;6.77;6.27;;;;;;;;;;5075464;28;20504;-74
2021/05/02 13:00:21;;;;;;;6.47;5.47;;;;;;;;;;5074954;28;20406;-74
2021/05/02 13:02:48;;;;;;;5.30;4.80;;;;;;;;;;5075089;28;20418;-76
2021/05/02 13:05:20;;;;;;;6.00;5.40;;;;;;;;;;5074933;28;20407;-75
2021/05/02 13:07:47;;;;;;;6.00;5.50;;;;;;;;;;5074830;28;20602;-74
2021/05/02 13:10:23;;;;;;;6.10;5.60;;;;;;;;;;5074487;28;20511;-74
2021/05/02 13:13:07;;;;;;;5.30;4.90;;;;;;;;;;5074955;28;20433;-75
2021/05/02 13:15:39;;;;;;;5.13;4.73;;;;;;;;;;5074825;28;20449;-77
2021/05/02 13:18:10;;;;;;;6.07;4.93;;;;;;;;;;5074725;28;20751;-78
2021/05/02 13:20:54;;;;;;;11.33;6.67;;;;;;;;;;5074353;28;20410;-77
2021/05/02 13:23:23;;;;;;;7.90;6.30;;;;;;;;;;5074207;28;20410;-74
2021/05/02 13:25:50;;;;;;;7.93;7.33;;;;;;;;;;5074081;28;20548;-76
2021/05/02 13:28:15;;;;;;;7.77;7.17;;;;;;;;;;5073933;28;20473;-75
2021/05/02 13:30:42;;;;;;;8.20;7.40;;;;;;;;;;5074347;28;20418;-76
2021/05/02 13:33:12;;;;;;;9.13;8.23;;;;;;;;;;5073087;28;20434;-75
2021/05/02 13:35:41;;;;;;;13.83;9.07;;;;;;;;;;5073925;28;20419;-83
2021/05/02 13:38:08;;;;;;;9.67;8.30;;;;;;;;;;5073907;28;20531;-79
2021/05/02 13:40:35;;;;;;;10.63;9.63;;;;;;;;;;5074285;28;20427;-80
2021/05/02 13:43:04;;;;;;;9.50;8.60;;;;;;;;;;5073924;28;20402;-77
2021/05/02 13:45:31;;;;;;;11.73;9.00;;;;;;;;;;5073982;28;20406;-74
2021/05/02 13:47:57;;;;;;;9.70;8.67;;;;;;;;;;5072796;28;20477;-82
2021/05/02 13:50:23;;;;;;;9.93;8.97;;;;;;;;;;5074020;28;20414;-78
2021/05/02 13:52:50;;;;;;;10.27;9.37;;;;;;;;;;5074160;28;20876;-73
2021/05/02 13:55:17;;;;;;;11.53;10.47;;;;;;;;;;5073833;28;20889;-75
2021/05/02 13:57:43;;;;;;;12.07;10.97;;;;;;;;;;5073876;28;20422;-74
2021/05/02 14:00:12;;;;;;;10.90;10.03;;;;;;;;;;5074067;28;20417;-80
2021/05/02 14:02:42;;;;;;;10.87;9.80;;;;;;;;;;5073702;28;20418;-74
2021/05/02 14:05:10;;;;;;;10.83;9.93;;;;;;;;;;5073766;28;20441;-76
2021/05/02 14:07:36;;;;;;;11.37;10.27;;;;;;;;;;5073420;28;20465;-78
2021/05/02 14:15:55;;;;;;;9.37;8.57;;;;;;;;;;5073626;28;20989;-76
2021/05/02 14:18:23;;;;;;;9.63;8.83;;;;;;;;;;5072465;28;20438;-79
2021/05/02 14:20:49;;;;;;;10.77;9.67;;;;;;;;;;5073759;28;20474;-73
2021/05/02 14:23:15;;;;;;;11.20;10.23;;;;;;;;;;5073210;28;20532;-74
2021/05/02 14:25:41;;;;;;;10.83;9.87;;;;;;;;;;5073392;28;20428;-72
2021/05/02 14:28:08;;;;;;;10.83;9.77;;;;;;;;;;5071523;28;20553;-82
2021/05/02 14:30:34;;;;;;;11.90;10.73;;;;;;;;;;5070046;28;20404;-80
2021/05/02 14:33:00;;;;;;;10.50;9.60;;;;;;;;;;5070783;28;20422;-71
2021/05/02 14:35:26;;;;;;;13.43;11.10;;;;;;;;;;5071432;28;20747;-74
2021/05/02 14:37:52;;;;;;;11.13;10.03;;;;;;;;;;5072088;28;20422;-77
2021/05/02 14:40:18;;;;;;;12.53;11.33;;;;;;;;;;5071982;28;20408;-75
2021/05/02 14:45:48;;;;;;;10.67;9.57;;;;;;;;;;5073009;28;20466;-76
2021/05/02 14:48:14;;;;;;;11.53;10.20;;;;;;;;;;5072394;28;20481;-73
2021/05/02 14:50:40;;;;;;;12.73;11.43;;;;;;;;;;5073420;28;20408;-75
2021/05/02 14:53:06;;;;;;;11.23;10.23;;;;;;;;;;5074177;28;20415;-75
2021/05/02 14:55:32;;;;;;;11.40;9.77;;;;;;;;;;5079717;28;20472;-76
2021/05/02 14:57:59;;;;;;;10.87;9.90;;;;;;;;;;5073525;28;20431;-76
2021/05/02 15:00:25;;;;;;;10.73;9.67;;;;;;;;;;5072965;28;20415;-79
2021/05/02 15:02:52;;;;;;;14.53;9.40;;;;;;;;;;5073127;28;20422;-75
2021/05/02 15:05:18;;;;;;;6.57;5.87;;;;;;;;;;5073316;28;20429;-80
2021/05/02 15:07:44;;;;;;;10.93;9.87;;;;;;;;;;5072704;28;20933;-78
2021/05/02 15:10:12;;;;;;;10.60;9.67;;;;;;;;;;5072548;28;20454;-81
2021/05/02 15:15:41;;;;;;;11.10;10.10;;;;;;;;;;5072952;28;20932;-72
2021/05/02 15:18:07;;;;;;;10.10;9.00;;;;;;;;;;5072595;28;20419;-72
2021/05/02 15:20:33;;;;;;;12.00;10.90;;;;;;;;;;5072574;28;20834;-73
2021/05/02 15:22:59;;;;;;;12.33;11.23;;;;;;;;;;5072224;28;20429;-76
2021/05/02 15:25:25;;;;;;;12.17;10.97;;;;;;;;;;5070580;28;20427;-76
2021/05/02 15:30:56;;;;;;;15.10;10.53;;;;;;;;;;5071400;28;20427;-80
2021/05/02 15:33:24;;;;;;;13.00;11.90;;;;;;;;;;5071295;28;20429;-79
2021/05/02 15:35:51;;;;;;;10.63;9.53;;;;;;;;;;5071809;28;20412;-73
2021/05/02 15:38:17;;;;;;;10.70;9.80;;;;;;;;;;5071339;28;20392;-81
2021/05/02 15:40:43;;;;;;;11.00;10.00;;;;;;;;;;5070579;28;20526;-82
2021/05/02 15:46:13;;;;;;;10.90;9.97;;;;;;;;;;5071324;28;20763;-80
2021/05/02 15:48:39;;;;;;;11.87;10.73;;;;;;;;;;5071342;28;20468;-82
2021/05/02 15:51:05;;;;;;;10.70;9.60;;;;;;;;;;5071540;28;20895;-81
2021/05/02 15:53:31;;;;;;;9.43;8.60;;;;;;;;;;5069516;28;20429;-78
2021/05/02 15:55:57;;;;;;;10.87;9.87;;;;;;;;;;5071221;28;20413;-74
2021/05/02 16:01:26;;;;;;;11.10;10.13;;;;;;;;;;5071328;28;20408;-75
2021/05/02 16:03:53;;;;;;;9.33;8.63;;;;;;;;;;5072099;28;20464;-78
2021/05/02 16:06:21;;;;;;;12.80;11.13;;;;;;;;;;5072183;28;20461;-74
2021/05/02 16:08:47;;;;;;;11.30;10.20;;;;;;;;;;5071350;28;20527;-78
2021/05/02 16:11:13;;;;;;;11.07;10.00;;;;;;;;;;5071236;28;20464;-79
2021/05/02 16:13:39;;;;;;;11.00;9.97;;;;;;;;;;5072098;28;20476;-75
2021/05/02 16:16:05;;;;;;;11.40;9.30;;;;;;;;;;5070960;28;20443;-81
2021/05/02 16:18:32;;;;;;;10.87;9.87;;;;;;;;;;5072287;28;20806;-78
2021/05/02 16:20:58;;;;;;;12.90;11.70;;;;;;;;;;5071840;28;20417;-79
2021/05/02 16:23:26;;;;;;;10.57;9.57;;;;;;;;;;5075110;28;20465;-72
2021/05/02 16:25:52;;;;;;;10.47;9.53;;;;;;;;;;5075438;28;20895;-73
2021/05/02 16:31:21;;;;;;;9.10;8.30;;;;;;;;;;5075463;28;20829;-72